createdAt,value
2017-09-25T00:03:30.306Z,1025.6
2017-09-25T00:08:35.031Z,1025.6
2017-09-25T00:13:41.096Z,1025.7
2017-09-25T00:18:46.488Z,1025.6
2017-09-25T00:23:52.220Z,1025.5
2017-09-25T00:28:57.280Z,1025.5
2017-09-25T00:34:02.678Z,1025.5
2017-09-25T00:39:08.429Z,1025.5
2017-09-25T00:44:14.491Z,1025.5
2017-09-25T00:49:19.886Z,1025.3
2017-09-25T00:54:24.954Z,1025.3
2017-09-25T00:59:29.344Z,1025.3
2017-09-25T01:04:34.402Z,1025.4
2017-09-25T01:09:39.465Z,1025.4
2017-09-25T01:14:44.861Z,1025.4
2017-09-25T01:19:50.927Z,1025.4
2017-09-25T01:24:56.658Z,1025.4
2017-09-25T01:30:01.052Z,1025.4
2017-09-25T01:35:06.111Z,1025.4
2017-09-25T01:40:11.502Z,1025.3
2017-09-25T01:45:16.570Z,1025.2
2017-09-25T01:50:21.626Z,1025.2
2017-09-25T01:55:26.356Z,1025.2
2017-09-25T02:00:31.416Z,1025.1
2017-09-25T02:05:36.147Z,1025.1
2017-09-25T02:10:41.538Z,1025
2017-09-25T02:15:46.271Z,1025
2017-09-25T02:20:51.666Z,1025
2017-09-25T02:25:57.394Z,1024.9
2017-09-25T02:31:02.788Z,1025
2017-09-25T02:36:08.514Z,1025
2017-09-25T02:41:13.575Z,1025
2017-09-25T02:46:19.307Z,1024.9
2017-09-25T02:51:24.037Z,1024.9
2017-09-25T02:56:29.429Z,1024.8
2017-09-25T03:01:34.824Z,1024.8
2017-09-25T03:06:39.883Z,1024.8
2017-09-25T03:11:44.945Z,1024.7
2017-09-25T03:16:50.338Z,1024.7
2017-09-25T03:21:56.404Z,1024.7
2017-09-25T03:27:01.800Z,1024.6
2017-09-25T03:32:07.201Z,1024.6
2017-09-25T03:37:12.593Z,1024.7
2017-09-25T03:42:17.988Z,1024.6
2017-09-25T03:47:23.382Z,1024.7
2017-09-25T03:52:28.775Z,1024.6
2017-09-25T03:57:34.170Z,1024.5
2017-09-25T04:02:38.900Z,1024.5
2017-09-25T04:07:44.297Z,1024.5
2017-09-25T04:12:49.699Z,1024.5
2017-09-25T04:17:54.424Z,1024.5
2017-09-25T04:22:59.179Z,1024.5
2017-09-25T04:28:04.213Z,1024.5
2017-09-25T04:33:08.621Z,1024.5
2017-09-25T04:38:14.029Z,1024.4
2017-09-25T04:43:19.088Z,1024.4
2017-09-25T04:48:23.822Z,1024.5
2017-09-25T04:53:28.212Z,1024.5
2017-09-25T04:58:33.955Z,1024.5
2017-09-25T05:03:38.689Z,1024.6
2017-09-25T05:08:42.747Z,1024.6
2017-09-25T05:13:47.470Z,1024.6
2017-09-25T05:18:52.862Z,1024.6
2017-09-25T05:23:58.256Z,1024.6
2017-09-25T05:29:03.652Z,1024.7
2017-09-25T05:34:09.047Z,1024.7
2017-09-25T05:39:13.777Z,1024.8
2017-09-25T05:44:18.843Z,1024.7
2017-09-25T05:49:24.575Z,1024.8
2017-09-25T05:54:30.304Z,1024.8
2017-09-25T05:59:35.702Z,1024.8
2017-09-25T06:04:40.429Z,1024.8
2017-09-25T06:09:46.167Z,1024.8
2017-09-25T06:14:50.556Z,1024.8
2017-09-25T06:19:55.962Z,1024.7
2017-09-25T06:25:01.028Z,1024.8
2017-09-25T06:30:06.758Z,1024.8
2017-09-25T06:35:12.495Z,1024.8
2017-09-25T06:40:17.217Z,1024.8
2017-09-25T06:45:21.941Z,1024.8
2017-09-25T06:50:27.001Z,1024.8
2017-09-25T06:55:33.073Z,1024.7
2017-09-25T07:00:39.138Z,1024.7
2017-09-25T07:05:45.202Z,1024.7
2017-09-25T07:10:50.937Z,1024.7
2017-09-25T07:15:56.333Z,1024.7
2017-09-25T07:21:02.067Z,1024.8
2017-09-25T07:26:07.454Z,1024.8
2017-09-25T07:31:12.191Z,1024.8
2017-09-25T07:36:17.587Z,1024.8
2017-09-25T07:41:22.652Z,1024.7
2017-09-25T07:46:27.375Z,1024.8
2017-09-25T07:51:33.107Z,1024.7
2017-09-25T07:56:38.167Z,1024.7
2017-09-25T08:01:43.230Z,1024.7
2017-09-25T08:06:48.959Z,1024.7
2017-09-25T08:11:54.019Z,1024.7
2017-09-25T08:16:59.087Z,1024.7
2017-09-25T08:22:04.147Z,1024.7
2017-09-25T08:27:09.209Z,1024.7
2017-09-25T08:32:14.946Z,1024.7
2017-09-25T08:37:20.343Z,1024.7
2017-09-25T08:42:25.068Z,1024.8
2017-09-25T08:47:29.804Z,1024.8
2017-09-25T08:52:34.869Z,1024.8
2017-09-25T08:57:40.265Z,1024.7
2017-09-25T09:02:45.661Z,1024.7
2017-09-25T09:07:51.059Z,1024.6
2017-09-25T09:12:56.121Z,1024.6
2017-09-25T09:18:01.523Z,1024.6
2017-09-25T09:23:06.917Z,1024.5
2017-09-25T09:28:11.641Z,1024.5
2017-09-25T09:33:17.373Z,1024.5
2017-09-25T09:38:22.768Z,1024.5
2017-09-25T09:43:27.832Z,1024.5
2017-09-25T09:48:32.902Z,1024.4
2017-09-25T09:53:38.290Z,1024.4
2017-09-25T09:58:43.017Z,1024.4
2017-09-25T10:03:48.747Z,1024.4
2017-09-25T10:08:54.477Z,1024.4
2017-09-25T10:14:00.209Z,1024.4
2017-09-25T10:19:05.602Z,1024.3
2017-09-25T10:24:10.998Z,1024.3
2017-09-25T10:29:16.401Z,1024.2
2017-09-25T10:34:22.139Z,1024.2
2017-09-25T10:39:27.541Z,1024.2
2017-09-25T10:44:32.941Z,1024.1
2017-09-25T10:49:38.677Z,1024.1
2017-09-25T10:54:43.743Z,1024.1
2017-09-25T10:59:47.807Z,1024
2017-09-25T11:04:53.259Z,1024
2017-09-25T11:09:58.997Z,1024
2017-09-25T11:15:03.728Z,1023.9
2017-09-25T11:20:09.132Z,1023.9
2017-09-25T11:25:13.861Z,1023.9
2017-09-25T11:30:19.599Z,1023.8
2017-09-25T11:35:23.996Z,1023.7
2017-09-25T11:40:29.060Z,1023.8
2017-09-25T11:45:33.453Z,1023.8
2017-09-25T11:50:38.518Z,1023.8
2017-09-25T11:55:43.919Z,1023.8
2017-09-25T12:00:48.981Z,1023.8
2017-09-25T12:05:54.386Z,1023.8
2017-09-25T12:10:58.784Z,1023.7
2017-09-25T12:16:03.181Z,1023.6
2017-09-25T12:21:08.582Z,1023.6
2017-09-25T12:26:13.644Z,1023.6
2017-09-25T12:31:19.053Z,1023.6
2017-09-25T12:36:24.459Z,1023.6
2017-09-25T12:41:30.195Z,1023.6
2017-09-25T12:46:35.596Z,1023.5
2017-09-25T12:51:40.667Z,1023.4
2017-09-25T12:56:45.407Z,1023.4
2017-09-25T13:01:50.808Z,1023.4
2017-09-25T13:06:56.550Z,1023.4
2017-09-25T13:12:01.969Z,1023.4
2017-09-25T13:17:08.044Z,1023.4
2017-09-25T13:22:13.451Z,1023.3
2017-09-25T13:27:18.928Z,1023.3
2017-09-25T13:32:23.628Z,1023.2
2017-09-25T13:37:29.039Z,1023.1
2017-09-25T13:42:34.778Z,1023.2
2017-09-25T13:47:39.860Z,1023.2
2017-09-25T13:52:45.605Z,1023.2
2017-09-25T13:57:50.679Z,1023.2
2017-09-25T14:02:56.099Z,1023.2
2017-09-25T14:08:02.171Z,1023.2
2017-09-25T14:13:07.913Z,1023.2
2017-09-25T14:18:12.983Z,1023.2
2017-09-25T14:23:18.734Z,1023.3
2017-09-25T14:28:24.254Z,1023.4
2017-09-25T14:33:29.323Z,1023.5
2017-09-25T14:38:34.591Z,1023.5
2017-09-25T14:43:39.996Z,1023.4
2017-09-25T14:48:45.104Z,1023.4
2017-09-25T14:53:50.861Z,1023.4
2017-09-25T14:58:56.263Z,1023.4
2017-09-25T15:04:01.664Z,1023.3
2017-09-25T15:09:06.737Z,1023.4
2017-09-25T15:14:12.137Z,1023.4
2017-09-25T15:19:17.200Z,1023.4
2017-09-25T15:24:21.933Z,1023.4
2017-09-25T15:29:27.334Z,1023.4
2017-09-25T15:34:32.743Z,1023.5
2017-09-25T15:39:38.144Z,1023.4
2017-09-25T15:44:44.087Z,1023.4
2017-09-25T15:49:48.820Z,1023.4
2017-09-25T15:54:53.887Z,1023.4
2017-09-25T15:59:59.286Z,1023.3
2017-09-25T16:05:04.017Z,1023.3
2017-09-25T16:10:09.082Z,1023.3
2017-09-25T16:15:14.486Z,1023.4
2017-09-25T16:20:19.886Z,1023.6
2017-09-25T16:25:24.950Z,1023.5
2017-09-25T16:30:30.011Z,1023.5
2017-09-25T16:35:34.738Z,1023.5
2017-09-25T16:40:39.813Z,1023.5
2017-09-25T16:45:44.879Z,1023.6
2017-09-25T16:50:49.606Z,1023.6
2017-09-25T16:55:55.008Z,1023.7
2017-09-25T17:01:00.744Z,1023.8
2017-09-25T17:06:06.142Z,1023.8
2017-09-25T17:11:11.215Z,1023.9
2017-09-25T17:16:16.285Z,1024
2017-09-25T17:21:22.015Z,1024
2017-09-25T17:26:26.746Z,1024
2017-09-25T17:31:31.476Z,1024
2017-09-25T17:36:36.878Z,1024.1
2017-09-25T17:41:40.946Z,1024.1
2017-09-25T17:46:45.662Z,1024.2
2017-09-25T17:51:50.722Z,1024.2
2017-09-25T17:56:56.118Z,1024.2
2017-09-25T18:02:01.528Z,1024.3
2017-09-25T18:07:06.931Z,1024.4
2017-09-25T18:12:11.999Z,1024.4
2017-09-25T18:17:17.738Z,1024.5
2017-09-25T18:22:23.149Z,1024.4
2017-09-25T18:27:27.883Z,1024.5
2017-09-25T18:32:33.303Z,1024.6
2017-09-25T18:37:37.710Z,1024.6
2017-09-25T18:42:42.778Z,1024.6
2017-09-25T18:47:48.517Z,1024.6
2017-09-25T18:52:52.924Z,1024.7
2017-09-25T18:57:57.994Z,1024.7
2017-09-25T19:03:03.314Z,1024.7
2017-09-25T19:08:08.391Z,1024.7
2017-09-25T19:13:13.131Z,1024.7
2017-09-25T19:18:18.868Z,1024.8
2017-09-25T19:23:23.289Z,1024.8
2017-09-25T19:28:29.034Z,1024.8
2017-09-25T19:33:33.790Z,1024.8
2017-09-25T19:38:38.867Z,1024.8
2017-09-25T19:43:44.278Z,1024.8
2017-09-25T19:48:49.679Z,1024.8
2017-09-25T19:53:55.419Z,1024.8
2017-09-25T19:59:00.150Z,1024.8
2017-09-25T20:04:04.879Z,1024.7
2017-09-25T20:09:09.622Z,1024.7
2017-09-25T20:14:14.690Z,1024.7
2017-09-25T20:19:19.433Z,1024.8
2017-09-25T20:24:25.168Z,1024.8
2017-09-25T20:29:30.572Z,1024.8
2017-09-25T20:34:35.309Z,1024.8
2017-09-25T20:39:40.424Z,1024.9
2017-09-25T20:44:45.174Z,1024.9
2017-09-25T20:49:50.586Z,1024.8
2017-09-25T20:54:55.328Z,1024.8
2017-09-25T21:00:00.398Z,1024.8
2017-09-25T21:05:05.465Z,1024.8
2017-09-25T21:10:10.543Z,1024.8
2017-09-25T21:15:15.273Z,1024.8
2017-09-25T21:20:20.344Z,1024.8
2017-09-25T21:25:25.746Z,1024.8
2017-09-25T21:30:30.476Z,1024.8
2017-09-25T21:35:35.547Z,1024.9
2017-09-25T21:40:40.949Z,1024.9
2017-09-25T21:45:45.689Z,1024.8
2017-09-25T21:50:50.759Z,1024.8
2017-09-25T21:55:55.833Z,1024.8
2017-09-25T22:01:01.569Z,1024.8
2017-09-25T22:06:06.976Z,1024.8
2017-09-25T22:11:12.717Z,1024.8
2017-09-25T22:16:17.451Z,1024.8
2017-09-25T22:21:22.512Z,1024.8
2017-09-25T22:26:28.248Z,1024.9
2017-09-25T22:31:33.649Z,1024.9
2017-09-25T22:36:38.714Z,1024.8
2017-09-25T22:41:43.780Z,1024.8
2017-09-25T22:46:48.841Z,1024.8
2017-09-25T22:51:53.575Z,1024.8
2017-09-25T22:56:58.971Z,1024.7
2017-09-25T23:02:04.368Z,1024.8
2017-09-25T23:07:09.429Z,1024.8
2017-09-25T23:12:14.829Z,1024.8
2017-09-25T23:17:20.892Z,1024.8
2017-09-25T23:22:25.617Z,1024.8
2017-09-25T23:27:30.688Z,1024.8
2017-09-25T23:32:36.082Z,1024.8
2017-09-25T23:37:40.813Z,1024.8
2017-09-25T23:42:46.543Z,1024.8
2017-09-25T23:47:51.601Z,1024.8
2017-09-25T23:52:56.660Z,1024.7
2017-09-25T23:58:01.384Z,1024.7
